sensor_id;sensor_type;location;lat;lon;timestamp;temperature;humidity
1055;DHT22;516;51.482;7.120;2023-04-25T00:01:10;7.00;99.90
1055;DHT22;516;51.482;7.120;2023-04-25T00:07:00;7.00;99.90
1055;DHT22;516;51.482;7.120;2023-04-25T00:12:50;7.10;99.90
1055;DHT22;516;51.482;7.120;2023-04-25T00:18:39;7.00;99.90
1055;DHT22;516;51.482;7.120;2023-04-25T00:24:27;7.10;99.90
1055;DHT22;516;51.482;7.120;2023-04-25T00:30:14;7.00;99.90
1055;DHT22;516;51.482;7.120;2023-04-25T00:36:02;7.10;99.90
1055;DHT22;516;51.482;7.120;2023-04-25T00:41:50;7.10;99.90
1055;DHT22;516;51.482;7.120;2023-04-25T00:47:41;7.10;99.90
1055;DHT22;516;51.482;7.120;2023-04-25T00:57:29;7.10;99.90
1055;DHT22;516;51.482;7.120;2023-04-25T01:03:17;7.10;99.90
1055;DHT22;516;51.482;7.120;2023-04-25T01:09:07;7.20;99.90
1055;DHT22;516;51.482;7.120;2023-04-25T01:14:55;7.10;99.90
1055;DHT22;516;51.482;7.120;2023-04-25T01:20:43;7.10;99.90
1055;DHT22;516;51.482;7.120;2023-04-25T01:26:31;7.10;99.90
1055;DHT22;516;51.482;7.120;2023-04-25T01:32:19;7.10;99.90
1055;DHT22;516;51.482;7.120;2023-04-25T01:38:07;7.00;99.90
1055;DHT22;516;51.482;7.120;2023-04-25T01:43:55;7.10;99.90
1055;DHT22;516;51.482;7.120;2023-04-25T01:49:43;7.00;99.90
1055;DHT22;516;51.482;7.120;2023-04-25T01:55:39;6.90;99.90
1055;DHT22;516;51.482;7.120;2023-04-25T02:01:27;7.00;99.90
1055;DHT22;516;51.482;7.120;2023-04-25T02:07:14;6.90;99.90
1055;DHT22;516;51.482;7.120;2023-04-25T02:13:02;6.90;99.90
1055;DHT22;516;51.482;7.120;2023-04-25T02:18:51;6.90;99.90
1055;DHT22;516;51.482;7.120;2023-04-25T02:24:39;7.00;99.90
1055;DHT22;516;51.482;7.120;2023-04-25T02:30:26;6.90;99.90
1055;DHT22;516;51.482;7.120;2023-04-25T02:36:14;6.90;99.90
1055;DHT22;516;51.482;7.120;2023-04-25T02:42:02;6.90;99.90
1055;DHT22;516;51.482;7.120;2023-04-25T02:47:49;6.90;99.90
1055;DHT22;516;51.482;7.120;2023-04-25T02:57:27;6.70;99.90
1055;DHT22;516;51.482;7.120;2023-04-25T03:03:14;6.80;99.90
1055;DHT22;516;51.482;7.120;2023-04-25T03:09:04;6.70;99.90
1055;DHT22;516;51.482;7.120;2023-04-25T03:14:52;6.60;99.90
1055;DHT22;516;51.482;7.120;2023-04-25T03:20:40;6.60;99.90
1055;DHT22;516;51.482;7.120;2023-04-25T03:26:29;6.60;99.90
1055;DHT22;516;51.482;7.120;2023-04-25T03:32:16;6.50;99.90
1055;DHT22;516;51.482;7.120;2023-04-25T03:38:04;6.60;99.90
1055;DHT22;516;51.482;7.120;2023-04-25T03:43:33;6.60;99.90
1055;DHT22;516;51.482;7.120;2023-04-25T03:49:20;6.60;99.90
1055;DHT22;516;51.482;7.120;2023-04-25T03:55:08;6.50;99.90
1055;DHT22;516;51.482;7.120;2023-04-25T04:00:56;6.60;99.90
1055;DHT22;516;51.482;7.120;2023-04-25T04:06:44;6.60;99.90
1055;DHT22;516;51.482;7.120;2023-04-25T04:12:31;6.50;99.90
1055;DHT22;516;51.482;7.120;2023-04-25T04:18:19;6.20;99.90
1055;DHT22;516;51.482;7.120;2023-04-25T04:24:06;5.80;99.90
1055;DHT22;516;51.482;7.120;2023-04-25T04:29:54;5.60;99.90
1055;DHT22;516;51.482;7.120;2023-04-25T04:35:42;5.50;99.90
1055;DHT22;516;51.482;7.120;2023-04-25T04:41:30;5.50;99.90
1055;DHT22;516;51.482;7.120;2023-04-25T04:47:18;5.40;99.90
1055;DHT22;516;51.482;7.120;2023-04-25T05:03:16;5.60;99.90
1055;DHT22;516;51.482;7.120;2023-04-25T05:09:04;5.70;99.90
1055;DHT22;516;51.482;7.120;2023-04-25T05:14:51;5.70;99.90
1055;DHT22;516;51.482;7.120;2023-04-25T05:20:39;6.00;99.90
1055;DHT22;516;51.482;7.120;2023-04-25T05:26:27;6.20;99.90
1055;DHT22;516;51.482;7.120;2023-04-25T05:32:18;6.40;99.90
1055;DHT22;516;51.482;7.120;2023-04-25T05:38:06;6.50;99.90
1055;DHT22;516;51.482;7.120;2023-04-25T05:43:53;6.60;99.90
1055;DHT22;516;51.482;7.120;2023-04-25T05:49:41;6.70;99.90
1055;DHT22;516;51.482;7.120;2023-04-25T05:55:22;6.80;99.90
1055;DHT22;516;51.482;7.120;2023-04-25T06:01:09;6.80;99.90
1055;DHT22;516;51.482;7.120;2023-04-25T06:06:57;7.10;99.90
1055;DHT22;516;51.482;7.120;2023-04-25T06:12:44;7.20;99.90
1055;DHT22;516;51.482;7.120;2023-04-25T06:18:32;7.30;99.90
1055;DHT22;516;51.482;7.120;2023-04-25T06:24:19;7.50;99.90
1055;DHT22;516;51.482;7.120;2023-04-25T06:30:23;7.50;99.90
1055;DHT22;516;51.482;7.120;2023-04-25T06:36:13;7.70;99.90
1055;DHT22;516;51.482;7.120;2023-04-25T06:42:00;7.50;99.90
1055;DHT22;516;51.482;7.120;2023-04-25T06:47:48;7.90;99.90
1055;DHT22;516;51.482;7.120;2023-04-25T06:53:50;7.90;99.90
1055;DHT22;516;51.482;7.120;2023-04-25T06:59:38;7.60;99.90
1055;DHT22;516;51.482;7.120;2023-04-25T07:05:25;7.10;99.90
1055;DHT22;516;51.482;7.120;2023-04-25T07:11:12;7.10;99.90
1055;DHT22;516;51.482;7.120;2023-04-25T07:17:00;7.20;99.90
1055;DHT22;516;51.482;7.120;2023-04-25T07:22:48;7.50;99.90
1055;DHT22;516;51.482;7.120;2023-04-25T07:25:52;7.50;99.90
1055;DHT22;516;51.482;7.120;2023-04-25T07:28:18;7.50;99.90
1055;DHT22;516;51.482;7.120;2023-04-25T07:34:06;7.70;99.90
1055;DHT22;516;51.482;7.120;2023-04-25T07:39:54;8.00;99.90
1055;DHT22;516;51.482;7.120;2023-04-25T07:45:43;8.00;99.90
1055;DHT22;516;51.482;7.120;2023-04-25T07:51:31;9.20;99.90
1055;DHT22;516;51.482;7.120;2023-04-25T07:57:19;10.20;99.10
1055;DHT22;516;51.482;7.120;2023-04-25T08:03:09;10.70;64.20
1055;DHT22;516;51.482;7.120;2023-04-25T08:08:57;9.70;76.60
1055;DHT22;516;51.482;7.120;2023-04-25T08:14:44;10.90;60.70
1055;DHT22;516;51.482;7.120;2023-04-25T08:20:32;10.20;61.50
1055;DHT22;516;51.482;7.120;2023-04-25T08:30:22;10.20;43.20
1055;DHT22;516;51.482;7.120;2023-04-25T08:36:11;9.80;38.90
1055;DHT22;516;51.482;7.120;2023-04-25T08:41:59;9.70;42.80
1055;DHT22;516;51.482;7.120;2023-04-25T08:47:51;9.50;38.60
1055;DHT22;516;51.482;7.120;2023-04-25T08:53:40;9.90;43.60
1055;DHT22;516;51.482;7.120;2023-04-25T08:59:32;11.10;33.20
1055;DHT22;516;51.482;7.120;2023-04-25T09:05:20;11.70;22.20
1055;DHT22;516;51.482;7.120;2023-04-25T09:11:10;10.40;23.40
1055;DHT22;516;51.482;7.120;2023-04-25T09:17:01;10.80;20.80
1055;DHT22;516;51.482;7.120;2023-04-25T09:23:00;10.60;17.60
1055;DHT22;516;51.482;7.120;2023-04-25T09:25:53;10.60;17.10
1055;DHT22;516;51.482;7.120;2023-04-25T09:28:26;11.10;18.50
1055;DHT22;516;51.482;7.120;2023-04-25T09:34:14;10.50;14.20
1055;DHT22;516;51.482;7.120;2023-04-25T09:40:06;10.90;13.70
1055;DHT22;516;51.482;7.120;2023-04-25T09:45:55;11.40;16.10
1055;DHT22;516;51.482;7.120;2023-04-25T09:51:59;10.80;13.60
1055;DHT22;516;51.482;7.120;2023-04-25T09:57:54;11.70;9.20
1055;DHT22;516;51.482;7.120;2023-04-25T10:04:23;11.80;1.00
1055;DHT22;516;51.482;7.120;2023-04-25T10:13:52;12.70;1.00
1055;DHT22;516;51.482;7.120;2023-04-25T10:19:40;13.30;1.00
1055;DHT22;516;51.482;7.120;2023-04-25T10:25:27;11.30;1.00
1055;DHT22;516;51.482;7.120;2023-04-25T10:31:16;10.40;1.00
1055;DHT22;516;51.482;7.120;2023-04-25T10:37:04;10.60;1.00
1055;DHT22;516;51.482;7.120;2023-04-25T10:42:54;10.50;1.00
1055;DHT22;516;51.482;7.120;2023-04-25T10:48:51;10.40;1.00
1055;DHT22;516;51.482;7.120;2023-04-25T10:54:47;9.60;1.00
1055;DHT22;516;51.482;7.120;2023-04-25T11:00:36;9.30;8.80
1055;DHT22;516;51.482;7.120;2023-04-25T11:03:16;8.90;27.80
1055;DHT22;516;51.482;7.120;2023-04-25T11:05:44;8.70;39.50
1055;DHT22;516;51.482;7.120;2023-04-25T11:11:36;8.70;64.40
1055;DHT22;516;51.482;7.120;2023-04-25T11:17:25;8.30;99.90
1055;DHT22;516;51.482;7.120;2023-04-25T11:23:13;8.20;99.90
1055;DHT22;516;51.482;7.120;2023-04-25T11:29:01;8.60;99.90
1055;DHT22;516;51.482;7.120;2023-04-25T11:34:49;9.30;99.90
1055;DHT22;516;51.482;7.120;2023-04-25T11:40:37;9.40;92.70
1055;DHT22;516;51.482;7.120;2023-04-25T11:46:25;10.10;51.50
1055;DHT22;516;51.482;7.120;2023-04-25T11:52:13;10.80;22.30
1055;DHT22;516;51.482;7.120;2023-04-25T11:58:01;11.80;3.20
1055;DHT22;516;51.482;7.120;2023-04-25T12:03:49;12.30;1.00
1055;DHT22;516;51.482;7.120;2023-04-25T12:09:37;13.50;1.00
1055;DHT22;516;51.482;7.120;2023-04-25T12:15:25;12.80;1.00
1055;DHT22;516;51.482;7.120;2023-04-25T12:21:13;10.70;1.00
1055;DHT22;516;51.482;7.120;2023-04-25T12:27:02;10.60;1.00
1055;DHT22;516;51.482;7.120;2023-04-25T12:29:54;11.30;1.00
1055;DHT22;516;51.482;7.120;2023-04-25T12:32:20;11.70;1.00
1055;DHT22;516;51.482;7.120;2023-04-25T12:38:08;11.40;1.00
1055;DHT22;516;51.482;7.120;2023-04-25T12:43:56;11.90;1.00
1055;DHT22;516;51.482;7.120;2023-04-25T12:49:44;11.40;1.00
1055;DHT22;516;51.482;7.120;2023-04-25T12:55:32;10.90;1.00
1055;DHT22;516;51.482;7.120;2023-04-25T13:01:23;10.20;2.70
1055;DHT22;516;51.482;7.120;2023-04-25T13:07:11;9.90;12.30
1055;DHT22;516;51.482;7.120;2023-04-25T13:13:01;9.50;24.40
1055;DHT22;516;51.482;7.120;2023-04-25T13:18:50;9.80;20.50
1055;DHT22;516;51.482;7.120;2023-04-25T13:24:38;10.10;18.70
1055;DHT22;516;51.482;7.120;2023-04-25T13:34:28;9.40;16.60
1055;DHT22;516;51.482;7.120;2023-04-25T13:40:16;9.80;20.00
1055;DHT22;516;51.482;7.120;2023-04-25T13:46:04;10.20;15.60
1055;DHT22;516;51.482;7.120;2023-04-25T13:51:52;11.30;6.60
1055;DHT22;516;51.482;7.120;2023-04-25T13:57:40;11.60;1.00
1055;DHT22;516;51.482;7.120;2023-04-25T14:03:27;12.20;1.00
1055;DHT22;516;51.482;7.120;2023-04-25T14:09:15;12.70;1.00
1055;DHT22;516;51.482;7.120;2023-04-25T14:15:03;12.60;1.00
1055;DHT22;516;51.482;7.120;2023-04-25T14:20:51;13.50;1.00
1055;DHT22;516;51.482;7.120;2023-04-25T14:26:39;14.10;1.00
1055;DHT22;516;51.482;7.120;2023-04-25T14:32:21;14.30;1.00
1055;DHT22;516;51.482;7.120;2023-04-25T14:38:10;12.30;1.00
1055;DHT22;516;51.482;7.120;2023-04-25T14:43:57;12.50;1.00
1055;DHT22;516;51.482;7.120;2023-04-25T14:49:45;12.00;1.00
1055;DHT22;516;51.482;7.120;2023-04-25T14:55:39;11.60;1.00
1055;DHT22;516;51.482;7.120;2023-04-25T15:01:28;11.10;1.00
1055;DHT22;516;51.482;7.120;2023-04-25T15:07:16;10.60;1.00
1055;DHT22;516;51.482;7.120;2023-04-25T15:13:04;10.90;3.30
1055;DHT22;516;51.482;7.120;2023-04-25T15:18:51;11.60;1.00
1055;DHT22;516;51.482;7.120;2023-04-25T15:24:20;12.70;1.00
1055;DHT22;516;51.482;7.120;2023-04-25T15:40:31;12.30;1.00
1055;DHT22;516;51.482;7.120;2023-04-25T15:46:19;11.90;1.00
1055;DHT22;516;51.482;7.120;2023-04-25T15:52:07;12.10;1.00
1055;DHT22;516;51.482;7.120;2023-04-25T15:57:54;11.30;1.00
1055;DHT22;516;51.482;7.120;2023-04-25T16:03:41;11.00;1.00
1055;DHT22;516;51.482;7.120;2023-04-25T16:09:29;12.10;1.00
1055;DHT22;516;51.482;7.120;2023-04-25T16:15:17;12.00;1.00
1055;DHT22;516;51.482;7.120;2023-04-25T16:21:05;11.50;1.00
1055;DHT22;516;51.482;7.120;2023-04-25T16:26:53;10.80;1.00
1055;DHT22;516;51.482;7.120;2023-04-25T16:32:40;11.40;1.00
1055;DHT22;516;51.482;7.120;2023-04-25T16:38:32;11.00;1.00
1055;DHT22;516;51.482;7.120;2023-04-25T16:44:22;12.10;1.00
1055;DHT22;516;51.482;7.120;2023-04-25T16:50:15;11.00;1.00
1055;DHT22;516;51.482;7.120;2023-04-25T16:56:03;10.40;1.00
1055;DHT22;516;51.482;7.120;2023-04-25T17:01:51;10.20;1.00
1055;DHT22;516;51.482;7.120;2023-04-25T17:07:39;9.90;2.50
1055;DHT22;516;51.482;7.120;2023-04-25T17:13:27;9.80;2.90
1055;DHT22;516;51.482;7.120;2023-04-25T17:19:14;9.90;2.10
1055;DHT22;516;51.482;7.120;2023-04-25T17:25:03;9.90;2.90
1055;DHT22;516;51.482;7.120;2023-04-25T17:30:51;10.00;1.00
1055;DHT22;516;51.482;7.120;2023-04-25T17:36:39;9.90;1.00
1055;DHT22;516;51.482;7.120;2023-04-25T17:42:27;9.70;1.00
1055;DHT22;516;51.482;7.120;2023-04-25T17:48:15;9.60;1.00
1055;DHT22;516;51.482;7.120;2023-04-25T17:54:03;9.30;2.30
1055;DHT22;516;51.482;7.120;2023-04-25T17:59:52;9.20;3.30
1055;DHT22;516;51.482;7.120;2023-04-25T18:05:40;9.10;5.30
1055;DHT22;516;51.482;7.120;2023-04-25T18:11:29;9.00;5.80
1055;DHT22;516;51.482;7.120;2023-04-25T18:17:17;8.90;7.50
1055;DHT22;516;51.482;7.120;2023-04-25T18:23:09;8.80;8.30
1055;DHT22;516;51.482;7.120;2023-04-25T18:28:57;8.60;9.50
1055;DHT22;516;51.482;7.120;2023-04-25T18:44:52;8.10;11.90
1055;DHT22;516;51.482;7.120;2023-04-25T18:50:40;7.90;14.50
1055;DHT22;516;51.482;7.120;2023-04-25T18:56:30;7.70;17.80
1055;DHT22;516;51.482;7.120;2023-04-25T19:02:19;7.80;17.60
1055;DHT22;516;51.482;7.120;2023-04-25T19:08:12;7.80;15.70
1055;DHT22;516;51.482;7.120;2023-04-25T19:14:00;7.60;19.20
1055;DHT22;516;51.482;7.120;2023-04-25T19:19:49;7.30;26.00
1055;DHT22;516;51.482;7.120;2023-04-25T19:25:37;7.20;30.70
1055;DHT22;516;51.482;7.120;2023-04-25T19:31:25;7.00;36.30
1055;DHT22;516;51.482;7.120;2023-04-25T19:34:30;6.90;38.40
1055;DHT22;516;51.482;7.120;2023-04-25T19:43:30;7.00;39.80
1055;DHT22;516;51.482;7.120;2023-04-25T19:49:18;6.90;40.10
1055;DHT22;516;51.482;7.120;2023-04-25T19:55:08;6.90;36.40
1055;DHT22;516;51.482;7.120;2023-04-25T20:00:57;6.90;31.50
1055;DHT22;516;51.482;7.120;2023-04-25T20:06:45;6.70;37.20
1055;DHT22;516;51.482;7.120;2023-04-25T20:12:33;6.40;46.30
1055;DHT22;516;51.482;7.120;2023-04-25T20:18:23;6.30;54.00
1055;DHT22;516;51.482;7.120;2023-04-25T20:24:12;5.90;60.30
1055;DHT22;516;51.482;7.120;2023-04-25T20:30:00;5.70;82.10
1055;DHT22;516;51.482;7.120;2023-04-25T20:39:16;5.00;99.90
1055;DHT22;516;51.482;7.120;2023-04-25T20:45:05;4.70;99.90
1055;DHT22;516;51.482;7.120;2023-04-25T20:50:54;4.80;99.90
1055;DHT22;516;51.482;7.120;2023-04-25T20:56:42;4.70;99.90
1055;DHT22;516;51.482;7.120;2023-04-25T21:02:30;4.50;99.90
1055;DHT22;516;51.482;7.120;2023-04-25T21:08:18;4.20;99.90
1055;DHT22;516;51.482;7.120;2023-04-25T21:14:06;4.00;99.90
1055;DHT22;516;51.482;7.120;2023-04-25T21:19:54;4.20;99.90
1055;DHT22;516;51.482;7.120;2023-04-25T21:25:41;4.10;99.90
1055;DHT22;516;51.482;7.120;2023-04-25T21:31:30;3.90;99.90
1055;DHT22;516;51.482;7.120;2023-04-25T21:37:12;3.90;99.90
1055;DHT22;516;51.482;7.120;2023-04-25T21:43:01;3.90;99.90
1055;DHT22;516;51.482;7.120;2023-04-25T21:48:49;3.70;99.90
1055;DHT22;516;51.482;7.120;2023-04-25T21:54:37;3.50;99.90
1055;DHT22;516;51.482;7.120;2023-04-25T22:00:25;3.60;99.90
1055;DHT22;516;51.482;7.120;2023-04-25T22:06:14;3.60;99.90
1055;DHT22;516;51.482;7.120;2023-04-25T22:12:05;3.50;99.90
1055;DHT22;516;51.482;7.120;2023-04-25T22:17:52;3.40;99.90
1055;DHT22;516;51.482;7.120;2023-04-25T22:23:41;3.40;99.90
1055;DHT22;516;51.482;7.120;2023-04-25T22:29:29;3.40;99.90
1055;DHT22;516;51.482;7.120;2023-04-25T22:39:20;3.30;99.90
1055;DHT22;516;51.482;7.120;2023-04-25T22:45:08;3.20;99.90
1055;DHT22;516;51.482;7.120;2023-04-25T22:51:03;3.10;99.90
1055;DHT22;516;51.482;7.120;2023-04-25T22:56:51;3.10;99.90
1055;DHT22;516;51.482;7.120;2023-04-25T23:02:39;3.10;99.90
1055;DHT22;516;51.482;7.120;2023-04-25T23:08:28;2.90;99.90
1055;DHT22;516;51.482;7.120;2023-04-25T23:14:16;2.70;99.90
1055;DHT22;516;51.482;7.120;2023-04-25T23:20:05;2.50;99.90
1055;DHT22;516;51.482;7.120;2023-04-25T23:25:54;2.40;99.90
1055;DHT22;516;51.482;7.120;2023-04-25T23:31:43;2.40;99.90
1055;DHT22;516;51.482;7.120;2023-04-25T23:34:47;2.30;99.90
1055;DHT22;516;51.482;7.120;2023-04-25T23:37:13;2.30;99.90
1055;DHT22;516;51.482;7.120;2023-04-25T23:43:01;2.20;99.90
1055;DHT22;516;51.482;7.120;2023-04-25T23:48:51;2.40;99.90
1055;DHT22;516;51.482;7.120;2023-04-25T23:54:39;2.10;99.90
